Time;durP1;ratioP1;P1;durP2;ratioP2;P2;SDS_P1;SDS_P2;PMS_P1;PMS_P2;Temp;Humidity;BMP_temperature;BMP_pressure;BME280_temperature;BME280_humidity;BME280_pressure;Samples;Min_cycle;Max_cycle;Signal;HPM_P1;HPM_P2
2023/06/01 00:01:20;;;;;;;20.00;9.48;;;15.50;99.90;;;;;;4169526;28;20180;-90
2023/06/01 00:03:26;;;;;;;19.15;10.20;;;15.50;99.90;;;;;;4167144;28;20668;-90
2023/06/01 00:05:26;;;;;;;18.33;10.18;;;15.50;99.90;;;;;;4153892;28;20176;-90
2023/06/01 00:07:29;;;;;;;21.73;9.98;;;15.60;99.90;;;;;;4152460;28;20263;-90
2023/06/01 00:09:30;;;;;;;18.40;10.10;;;15.50;99.90;;;;;;4170268;28;20533;-90
2023/06/01 00:11:31;;;;;;;19.30;10.98;;;15.50;99.90;;;;;;4152788;28;20176;-90
2023/06/01 00:13:35;;;;;;;20.30;11.00;;;15.50;99.90;;;;;;4168319;28;20632;-90
2023/06/01 00:15:43;;;;;;;23.10;11.45;;;15.40;99.90;;;;;;4167750;28;20192;-91
2023/06/01 00:17:44;;;;;;;20.52;10.45;;;15.40;99.90;;;;;;4153006;28;20216;-90
2023/06/01 00:19:45;;;;;;;19.27;11.05;;;15.40;99.90;;;;;;4150929;28;20213;-90
2023/06/01 00:21:45;;;;;;;23.15;11.27;;;15.40;99.90;;;;;;4154058;28;20196;-90
2023/06/01 00:23:56;;;;;;;22.50;11.95;;;15.40;99.90;;;;;;4168549;28;20167;-90
2023/06/01 00:25:58;;;;;;;20.40;10.95;;;15.30;99.90;;;;;;4152145;28;20185;-90
2023/06/01 00:27:59;;;;;;;29.30;11.93;;;15.30;99.90;;;;;;4167420;28;20178;-90
2023/06/01 00:30:02;;;;;;;23.23;10.90;;;15.20;99.90;;;;;;4169279;28;20658;-90
2023/06/01 00:32:03;;;;;;;20.88;12.27;;;15.20;99.90;;;;;;4168438;28;20218;-90
2023/06/01 00:34:07;;;;;;;22.67;12.15;;;15.20;99.90;;;;;;4167312;28;20172;-90
2023/06/01 00:36:19;;;;;;;25.45;13.02;;;15.20;99.90;;;;;;4169956;28;20303;-90
2023/06/01 00:38:20;;;;;;;27.15;12.65;;;15.10;99.90;;;;;;4150439;28;20226;-90
2023/06/01 00:40:21;;;;;;;19.50;11.80;;;15.10;99.90;;;;;;4166742;28;20625;-90
2023/06/01 00:42:22;;;;;;;23.33;12.95;;;15.00;99.90;;;;;;4151109;28;20176;-90
2023/06/01 00:44:26;;;;;;;23.15;12.75;;;15.00;99.90;;;;;;4167059;28;20179;-89
2023/06/01 00:46:31;;;;;;;29.88;13.80;;;15.00;99.90;;;;;;4168211;28;20283;-90
2023/06/01 00:48:34;;;;;;;25.58;13.43;;;15.00;99.90;;;;;;4167068;28;20176;-91
2023/06/01 00:50:35;;;;;;;27.98;13.32;;;14.90;99.90;;;;;;4170531;28;20173;-90
2023/06/01 00:52:38;;;;;;;28.60;13.90;;;14.90;99.90;;;;;;4166491;28;20244;-91
2023/06/01 00:54:47;;;;;;;29.80;13.60;;;14.80;99.90;;;;;;4150189;28;20231;-90
2023/06/01 00:57:03;;;;;;;26.23;14.45;;;14.80;99.90;;;;;;4153161;28;20184;-90
2023/06/01 00:59:05;;;;;;;24.45;13.80;;;14.70;99.90;;;;;;4168198;28;20204;-91
2023/06/01 01:01:18;;;;;;;25.98;14.68;;;14.70;99.90;;;;;;4169177;28;20170;-90
2023/06/01 01:03:25;;;;;;;22.75;13.35;;;14.70;99.90;;;;;;4169150;28;20187;-90
2023/06/01 01:05:35;;;;;;;28.05;15.00;;;14.70;99.90;;;;;;4166820;28;20203;-90
2023/06/01 01:08:03;;;;;;;22.75;14.30;;;14.70;99.90;;;;;;4166136;28;20227;-90
2023/06/01 01:10:13;;;;;;;30.20;15.70;;;14.60;99.90;;;;;;4169859;28;20168;-89
2023/06/01 01:13:15;;;;;;;25.10;14.52;;;14.50;99.90;;;;;;4154467;28;20197;-90
2023/06/01 01:15:32;;;;;;;34.92;14.45;;;14.40;99.90;;;;;;4156743;28;20613;-90
2023/06/01 01:17:42;;;;;;;24.85;13.75;;;14.50;99.90;;;;;;4167715;28;20174;-90
2023/06/01 01:19:57;;;;;;;30.35;14.75;;;14.40;99.90;;;;;;4166900;28;20616;-90
2023/06/01 01:22:22;;;;;;;28.63;15.70;;;14.40;99.90;;;;;;4151258;28;20177;-91
2023/06/01 01:24:56;;;;;;;31.45;14.75;;;14.40;99.90;;;;;;4149864;28;20630;-91
2023/06/01 01:27:13;;;;;;;28.27;15.35;;;14.30;99.90;;;;;;4153947;28;20191;-90
2023/06/01 01:29:16;;;;;;;35.42;16.00;;;14.40;99.90;;;;;;4152126;28;20212;-90
2023/06/01 01:31:26;;;;;;;34.75;15.50;;;14.30;99.90;;;;;;4166541;28;20183;-90
2023/06/01 01:33:35;;;;;;;28.52;14.18;;;14.30;99.90;;;;;;4151359;28;20264;-91
2023/06/01 01:35:36;;;;;;;32.08;14.95;;;14.10;99.90;;;;;;4151263;28;20193;-90
2023/06/01 01:37:49;;;;;;;29.65;15.10;;;14.10;99.90;;;;;;4150106;28;20180;-91
2023/06/01 01:39:52;;;;;;;28.90;15.00;;;14.10;99.90;;;;;;4149798;28;20693;-90
2023/06/01 01:41:55;;;;;;;26.70;15.85;;;14.10;99.90;;;;;;4166220;28;20526;-91
2023/06/01 01:43:58;;;;;;;27.73;14.13;;;14.10;99.90;;;;;;4166865;28;20210;-90
2023/06/01 01:46:38;;;;;;;29.52;16.20;;;14.20;99.90;;;;;;4165579;28;20311;-91
2023/06/01 01:48:47;;;;;;;30.92;15.93;;;14.20;99.90;;;;;;4163817;28;20187;-89
2023/06/01 01:50:53;;;;;;;30.35;15.73;;;14.20;99.90;;;;;;4169344;28;20168;-90
2023/06/01 01:53:02;;;;;;;30.02;15.30;;;14.20;99.90;;;;;;4165856;28;20624;-90
2023/06/01 01:55:08;;;;;;;33.97;15.88;;;14.20;99.90;;;;;;4166452;28;20180;-89
2023/06/01 01:57:12;;;;;;;28.55;16.77;;;14.10;99.90;;;;;;4168575;28;20168;-90
2023/06/01 01:59:18;;;;;;;33.78;16.88;;;14.10;99.90;;;;;;4168244;28;20215;-91
2023/06/01 02:01:23;;;;;;;30.83;16.25;;;14.10;99.90;;;;;;4165942;28;20183;-91
2023/06/01 02:03:23;;;;;;;32.22;16.13;;;14.00;99.90;;;;;;4166594;28;20176;-90
2023/06/01 02:05:24;;;;;;;32.13;15.48;;;13.90;99.90;;;;;;4170137;28;20229;-91
2023/06/01 02:07:30;;;;;;;27.88;16.80;;;13.90;99.90;;;;;;4168375;28;20183;-90
2023/06/01 02:09:33;;;;;;;30.25;15.77;;;14.00;99.90;;;;;;4166324;28;20203;-90
2023/06/01 02:11:35;;;;;;;34.42;16.90;;;13.90;99.90;;;;;;4151497;28;20169;-90
2023/06/01 02:13:43;;;;;;;30.63;16.77;;;13.90;99.90;;;;;;4166884;28;20172;-90
2023/06/01 02:15:48;;;;;;;36.75;17.10;;;14.00;99.90;;;;;;4166328;28;20207;-90
2023/06/01 02:17:53;;;;;;;34.72;16.85;;;14.00;99.90;;;;;;4166969;28;20176;-90
2023/06/01 02:19:58;;;;;;;30.38;15.95;;;13.90;99.90;;;;;;4165369;28;20208;-91
2023/06/01 02:22:00;;;;;;;31.60;16.50;;;13.80;99.90;;;;;;4149502;28;20152;-91
2023/06/01 02:24:04;;;;;;;31.92;16.77;;;13.90;99.90;;;;;;4149100;28;20173;-91
2023/06/01 02:26:11;;;;;;;38.25;17.45;;;14.00;99.90;;;;;;4149527;28;20779;-91
2023/06/01 02:28:16;;;;;;;31.48;16.65;;;13.90;99.90;;;;;;4166733;28;20258;-91
2023/06/01 02:30:23;;;;;;;29.83;16.15;;;13.80;99.90;;;;;;4148749;28;20200;-90
2023/06/01 02:32:24;;;;;;;36.20;16.83;;;13.70;99.90;;;;;;4165186;28;20164;-89
2023/06/01 02:34:36;;;;;;;31.60;16.38;;;13.70;99.90;;;;;;4165789;28;20179;-90
2023/06/01 02:36:37;;;;;;;31.20;16.52;;;13.70;99.90;;;;;;4165964;28;20195;-90
2023/06/01 02:38:41;;;;;;;36.92;17.80;;;13.60;99.90;;;;;;4165187;28;20192;-91
2023/06/01 02:40:42;;;;;;;35.13;17.25;;;13.60;99.90;;;;;;4151058;28;20165;-91
2023/06/01 02:42:46;;;;;;;31.48;18.17;;;13.60;99.90;;;;;;4169019;28;20446;-90
2023/06/01 02:44:50;;;;;;;34.42;16.52;;;13.50;99.90;;;;;;4149527;28;20188;-90
2023/06/01 02:46:55;;;;;;;36.28;17.58;;;13.40;99.90;;;;;;4166370;28;20187;-91
2023/06/01 02:48:56;;;;;;;37.63;17.90;;;13.40;99.90;;;;;;4166390;28;20187;-90
2023/06/01 02:51:00;;;;;;;35.35;17.80;;;13.30;99.90;;;;;;4167036;28;20653;-91
2023/06/01 02:53:01;;;;;;;34.10;17.85;;;13.30;99.90;;;;;;4168428;28;20172;-90
2023/06/01 02:55:02;;;;;;;36.67;17.95;;;13.30;99.90;;;;;;4149900;28;20268;-90
2023/06/01 02:57:38;;;;;;;32.38;17.80;;;13.40;99.90;;;;;;4154922;28;20157;-90
2023/06/01 02:59:49;;;;;;;38.83;17.95;;;13.30;99.90;;;;;;4168875;28;20310;-90
2023/06/01 03:01:57;;;;;;;31.50;17.50;;;13.30;99.90;;;;;;4167409;28;20175;-91
2023/06/01 03:04:04;;;;;;;34.83;17.67;;;13.30;99.90;;;;;;4167772;28;20206;-91
2023/06/01 03:06:17;;;;;;;46.65;19.02;;;13.30;99.90;;;;;;4164394;28;20199;-90
2023/06/01 03:08:30;;;;;;;34.70;17.58;;;13.30;99.90;;;;;;4166219;28;20183;-89
2023/06/01 03:10:31;;;;;;;42.13;17.73;;;13.30;99.90;;;;;;4152574;28;20173;-95
2023/06/01 03:13:01;;;;;;;39.22;17.80;;;13.30;99.90;;;;;;4158817;28;20180;-89
2023/06/01 03:15:02;;;;;;;42.40;18.17;;;13.10;99.90;;;;;;4171129;28;20263;-88
2023/06/01 03:17:02;;;;;;;35.92;18.35;;;13.20;99.90;;;;;;4151879;28;20558;-89
2023/06/01 03:19:03;;;;;;;38.35;18.00;;;13.20;99.90;;;;;;4150831;28;20211;-89
2023/06/01 03:21:04;;;;;;;41.65;18.40;;;13.20;99.90;;;;;;4166287;28;20181;-89
2023/06/01 03:23:05;;;;;;;40.83;16.95;;;13.10;99.90;;;;;;4166346;28;20255;-89
2023/06/01 03:25:07;;;;;;;47.35;19.48;;;13.10;99.90;;;;;;4165186;28;20164;-89
2023/06/01 03:27:08;;;;;;;35.22;17.77;;;13.10;99.90;;;;;;4166799;28;20672;-89
2023/06/01 03:29:13;;;;;;;41.33;18.48;;;13.10;99.90;;;;;;4169719;28;20176;-90
2023/06/01 03:31:18;;;;;;;36.63;18.15;;;13.10;99.90;;;;;;4169894;28;20195;-88
2023/06/01 03:33:22;;;;;;;44.95;18.77;;;13.00;99.90;;;;;;4149371;28;20180;-89
2023/06/01 03:35:23;;;;;;;36.47;18.58;;;13.00;99.90;;;;;;4169340;28;20175;-88
2023/06/01 03:37:24;;;;;;;40.40;18.77;;;12.90;99.90;;;;;;4152025;28;20263;-89
2023/06/01 03:39:24;;;;;;;39.85;19.45;;;12.80;99.90;;;;;;4164630;28;20216;-90
2023/06/01 03:41:25;;;;;;;41.40;20.15;;;12.90;99.90;;;;;;4149087;28;20557;-89
2023/06/01 03:43:26;;;;;;;38.95;18.92;;;13.00;99.90;;;;;;4149203;28;20177;-90
2023/06/01 03:45:27;;;;;;;42.08;19.80;;;13.10;99.90;;;;;;4164632;28;20176;-90
2023/06/01 03:47:28;;;;;;;42.08;19.42;;;13.10;99.90;;;;;;4167060;28;20268;-89
2023/06/01 03:49:32;;;;;;;42.75;20.05;;;13.10;99.90;;;;;;4166481;28;20355;-89
2023/06/01 03:51:35;;;;;;;38.47;19.50;;;13.10;99.90;;;;;;4166198;28;20173;-89
2023/06/01 03:53:37;;;;;;;38.75;20.35;;;13.00;99.90;;;;;;4182507;28;20249;-89
2023/06/01 03:55:38;;;;;;;40.30;19.85;;;12.90;99.90;;;;;;4167206;28;20250;-89
2023/06/01 03:58:02;;;;;;;40.38;19.48;;;12.90;99.90;;;;;;4152950;28;20157;-88
2023/06/01 04:00:17;;;;;;;39.90;18.75;;;12.90;99.90;;;;;;4150989;28;20217;-89
2023/06/01 04:02:26;;;;;;;38.85;19.80;;;12.90;99.90;;;;;;4166491;28;20185;-89
2023/06/01 04:04:29;;;;;;;37.97;19.75;;;12.80;99.90;;;;;;4166946;28;20211;-89
2023/06/01 04:06:34;;;;;;;38.90;18.92;;;12.80;99.90;;;;;;4166589;28;20204;-89
2023/06/01 04:08:48;;;;;;;41.53;19.10;;;12.70;99.90;;;;;;4148877;28;20205;-88
2023/06/01 04:10:50;;;;;;;43.10;20.75;;;12.60;99.90;;;;;;4165249;28;20176;-89
2023/06/01 04:12:52;;;;;;;41.80;20.00;;;12.50;99.90;;;;;;4166084;28;20173;-89
2023/06/01 04:14:54;;;;;;;40.80;19.77;;;12.50;99.90;;;;;;4167762;28;20663;-89
2023/06/01 04:16:56;;;;;;;40.58;19.00;;;12.40;99.90;;;;;;4164991;28;20207;-89
2023/06/01 04:19:01;;;;;;;39.10;19.73;;;12.40;99.90;;;;;;4151615;28;20216;-89
2023/06/01 04:21:09;;;;;;;45.95;21.38;;;12.40;99.90;;;;;;4153600;28;20168;-89
2023/06/01 04:23:11;;;;;;;45.00;19.83;;;12.40;99.90;;;;;;4151422;28;20663;-90
2023/06/01 04:25:17;;;;;;;45.30;21.13;;;12.40;99.90;;;;;;4152791;28;20164;-90
2023/06/01 04:27:24;;;;;;;40.83;20.63;;;12.30;99.90;;;;;;4154067;28;20328;-90
2023/06/01 04:29:25;;;;;;;42.55;20.95;;;12.40;99.90;;;;;;4154408;28;20177;-89
2023/06/01 04:31:32;;;;;;;39.80;20.88;;;12.40;99.90;;;;;;4151787;28;20272;-88
2023/06/01 04:33:34;;;;;;;44.58;20.95;;;12.50;99.90;;;;;;4170482;28;20172;-89
2023/06/01 04:35:43;;;;;;;40.30;20.33;;;12.50;99.90;;;;;;4169584;28;20605;-88
2023/06/01 04:37:49;;;;;;;45.65;20.85;;;12.50;99.90;;;;;;4168134;28;20327;-90
2023/06/01 04:39:51;;;;;;;41.80;20.55;;;12.50;99.90;;;;;;4151572;28;20235;-88
2023/06/01 04:41:53;;;;;;;42.65;20.90;;;12.50;99.90;;;;;;4168459;28;20176;-88
2023/06/01 04:43:54;;;;;;;41.72;21.85;;;12.40;99.90;;;;;;4155343;28;20181;-89
2023/06/01 04:45:57;;;;;;;39.55;20.92;;;12.40;99.90;;;;;;4153734;28;20665;-89
2023/06/01 04:47:58;;;;;;;37.00;21.13;;;12.30;99.90;;;;;;4154373;28;20514;-88
2023/06/01 04:50:10;;;;;;;39.42;20.80;;;12.30;99.90;;;;;;4166574;28;20715;-89
2023/06/01 04:52:11;;;;;;;41.97;20.27;;;12.20;99.90;;;;;;4153074;28;20183;-89
2023/06/01 04:54:12;;;;;;;38.67;20.60;;;12.30;99.90;;;;;;4152839;28;20169;-88
2023/06/01 04:56:13;;;;;;;35.20;19.70;;;12.30;99.90;;;;;;4169251;28;20714;-89
2023/06/01 04:58:17;;;;;;;33.92;20.30;;;12.40;99.90;;;;;;4170457;28;20173;-90
2023/06/01 05:00:22;;;;;;;43.33;21.10;;;12.40;99.90;;;;;;4152984;28;20224;-89
2023/06/01 05:02:25;;;;;;;44.30;20.63;;;12.30;99.90;;;;;;4168611;28;20291;-88
2023/06/01 05:04:33;;;;;;;46.03;20.48;;;12.40;99.90;;;;;;4172184;28;20192;-89
2023/06/01 05:06:48;;;;;;;40.33;21.35;;;12.30;99.90;;;;;;4168837;28;20207;-89
2023/06/01 05:08:49;;;;;;;42.08;21.27;;;12.30;99.90;;;;;;4168188;28;20176;-89
2023/06/01 05:10:51;;;;;;;34.03;20.88;;;12.30;99.90;;;;;;4152772;28;20169;-89
2023/06/01 05:12:52;;;;;;;37.47;21.15;;;12.30;99.90;;;;;;4166718;28;20179;-90
2023/06/01 05:14:53;;;;;;;33.03;16.70;;;12.20;99.90;;;;;;4154447;28;20176;-89
2023/06/01 05:16:55;;;;;;;36.30;22.50;;;12.20;99.90;;;;;;4151461;28;20673;-89
2023/06/01 05:18:56;;;;;;;42.22;23.73;;;12.10;99.90;;;;;;4151273;28;20581;-88
2023/06/01 05:20:57;;;;;;;44.17;24.17;;;12.20;99.90;;;;;;4151924;28;20271;-90
2023/06/01 05:22:58;;;;;;;47.08;22.55;;;12.20;99.90;;;;;;4166979;28;20176;-88
2023/06/01 05:24:58;;;;;;;43.35;22.77;;;12.20;99.90;;;;;;4168930;28;20179;-89
2023/06/01 05:27:01;;;;;;;43.78;22.10;;;12.20;99.90;;;;;;4149522;28;20728;-89
2023/06/01 05:29:05;;;;;;;42.30;21.77;;;12.30;99.90;;;;;;4166331;28;20227;-89
2023/06/01 05:31:07;;;;;;;40.83;21.40;;;12.30;99.90;;;;;;4167925;28;20182;-90
2023/06/01 05:33:15;;;;;;;37.47;21.73;;;12.30;99.90;;;;;;4166958;28;20611;-89
2023/06/01 05:35:16;;;;;;;35.53;22.13;;;12.40;99.90;;;;;;4167791;28;20238;-88
2023/06/01 05:37:16;;;;;;;41.22;21.23;;;12.40;99.90;;;;;;4166042;28;20180;-89
2023/06/01 05:39:17;;;;;;;44.03;23.25;;;12.30;99.90;;;;;;4151298;28;20232;-89
2023/06/01 05:41:18;;;;;;;39.47;22.80;;;12.30;99.90;;;;;;4168841;28;20200;-89
2023/06/01 05:43:19;;;;;;;40.90;21.92;;;12.30;99.90;;;;;;4151533;28;20173;-90
2023/06/01 05:45:20;;;;;;;39.83;21.20;;;12.30;99.90;;;;;;4153344;28;20181;-89
2023/06/01 05:47:22;;;;;;;38.00;21.83;;;12.30;99.90;;;;;;4168839;28;20176;-89
2023/06/01 05:49:22;;;;;;;45.38;21.80;;;12.30;99.90;;;;;;4149810;28;20821;-88
2023/06/01 05:51:27;;;;;;;39.65;21.50;;;12.50;99.90;;;;;;4151511;28;20173;-89
2023/06/01 05:53:30;;;;;;;43.35;21.25;;;12.60;99.90;;;;;;4168649;28;20633;-89
2023/06/01 05:55:33;;;;;;;46.65;22.60;;;12.70;99.90;;;;;;4152244;28;20269;-89
2023/06/01 05:57:34;;;;;;;39.30;21.45;;;12.80;99.90;;;;;;4169296;28;20172;-89
2023/06/01 05:59:38;;;;;;;38.33;20.85;;;12.80;99.90;;;;;;4167171;28;20204;-89
2023/06/01 06:01:40;;;;;;;43.97;21.52;;;12.80;99.90;;;;;;4153605;28;20173;-90
2023/06/01 06:03:48;;;;;;;35.22;21.25;;;12.80;99.90;;;;;;4182791;28;20163;-89
2023/06/01 06:05:49;;;;;;;47.58;22.38;;;12.90;99.90;;;;;;4166277;28;20330;-89
2023/06/01 06:07:50;;;;;;;47.50;22.80;;;12.90;99.90;;;;;;4152631;28;20169;-89
2023/06/01 06:09:51;;;;;;;40.75;22.95;;;13.00;99.90;;;;;;4169249;28;20179;-93
2023/06/01 06:11:55;;;;;;;43.28;23.35;;;12.90;99.90;;;;;;4150034;28;20216;-90
2023/06/01 06:13:56;;;;;;;44.30;23.75;;;12.90;99.90;;;;;;4153926;28;20639;-90
2023/06/01 06:15:57;;;;;;;42.17;23.75;;;12.80;99.90;;;;;;4166340;28;20211;-89
2023/06/01 06:17:57;;;;;;;38.50;24.00;;;12.70;99.90;;;;;;4151366;28;20188;-90
2023/06/01 06:19:58;;;;;;;45.60;23.33;;;12.70;99.90;;;;;;4166798;28;20211;-89
2023/06/01 06:22:06;;;;;;;40.35;22.55;;;12.70;99.90;;;;;;4148977;28;20597;-89
2023/06/01 06:24:08;;;;;;;40.90;22.88;;;12.70;99.90;;;;;;4151899;28;20175;-88
2023/06/01 06:26:09;;;;;;;46.55;23.48;;;12.70;99.90;;;;;;4152807;28;20197;-89
2023/06/01 06:28:10;;;;;;;43.78;22.10;;;12.80;99.90;;;;;;4150520;28;20183;-90
2023/06/01 06:30:11;;;;;;;42.15;22.25;;;12.90;99.90;;;;;;4150238;28;20239;-89
2023/06/01 06:32:12;;;;;;;43.50;22.45;;;12.90;99.90;;;;;;4150286;28;20369;-89
2023/06/01 06:34:16;;;;;;;39.72;22.38;;;13.20;99.90;;;;;;4150260;28;20180;-90
2023/06/01 06:36:20;;;;;;;40.80;23.50;;;13.40;99.90;;;;;;4168419;28;20780;-89
2023/06/01 06:38:21;;;;;;;46.33;24.05;;;13.50;99.90;;;;;;4168210;28;20176;-89
2023/06/01 06:40:25;;;;;;;43.25;24.30;;;13.60;99.90;;;;;;4167096;28;20558;-88
2023/06/01 06:42:27;;;;;;;44.28;23.40;;;13.50;99.90;;;;;;4167249;28;20172;-88
2023/06/01 06:44:28;;;;;;;47.35;24.55;;;13.50;99.90;;;;;;4165421;28;20514;-89
2023/06/01 06:46:29;;;;;;;43.15;24.45;;;13.50;99.90;;;;;;4168909;28;20251;-90
2023/06/01 06:48:30;;;;;;;39.30;23.73;;;13.50;99.90;;;;;;4149115;28;20173;-89
2023/06/01 06:50:31;;;;;;;43.05;26.50;;;13.60;99.90;;;;;;4166915;28;20267;-89
2023/06/01 06:52:32;;;;;;;41.55;24.75;;;13.70;99.90;;;;;;4152291;28;20197;-89
2023/06/01 06:54:33;;;;;;;41.47;23.50;;;13.70;99.90;;;;;;4150074;28;20180;-89
2023/06/01 06:56:34;;;;;;;49.22;25.52;;;13.70;99.90;;;;;;4150178;28;20557;-90
2023/06/01 06:58:35;;;;;;;48.65;25.58;;;13.80;99.90;;;;;;4166051;28;20172;-90
2023/06/01 07:00:37;;;;;;;61.08;28.33;;;13.90;99.90;;;;;;4150639;28;20545;-89
2023/06/01 07:02:37;;;;;;;47.28;29.23;;;14.00;99.90;;;;;;4148549;28;20187;-89
2023/06/01 07:04:39;;;;;;;45.60;26.92;;;14.00;99.90;;;;;;4150860;28;20649;-88
2023/06/01 07:06:44;;;;;;;40.10;22.38;;;14.20;99.90;;;;;;4164964;28;20696;-89
2023/06/01 07:08:45;;;;;;;37.35;24.33;;;14.40;99.90;;;;;;4165629;28;20263;-89
2023/06/01 07:10:45;;;;;;;35.63;22.55;;;14.40;99.90;;;;;;4167010;28;20197;-89
2023/06/01 07:12:46;;;;;;;37.45;21.55;;;14.40;99.90;;;;;;4150385;28;20223;-88
2023/06/01 07:14:47;;;;;;;41.38;23.25;;;14.30;99.90;;;;;;4166608;28;20259;-91
2023/06/01 07:16:51;;;;;;;39.65;22.75;;;14.20;99.90;;;;;;4150412;28;20211;-89
2023/06/01 07:18:52;;;;;;;34.70;23.67;;;14.20;99.90;;;;;;4181613;28;20278;-89
2023/06/01 07:20:52;;;;;;;35.78;23.33;;;14.20;99.90;;;;;;4165389;28;20168;-89
2023/06/01 07:22:57;;;;;;;38.50;22.30;;;14.40;99.90;;;;;;4166232;28;20282;-89
2023/06/01 07:25:05;;;;;;;39.88;21.40;;;14.50;99.90;;;;;;4166154;28;20180;-89
2023/06/01 07:27:07;;;;;;;48.05;23.38;;;14.70;99.90;;;;;;4167857;28;20194;-89
2023/06/01 07:29:12;;;;;;;37.60;22.45;;;14.90;99.90;;;;;;4165689;28;20168;-90
2023/06/01 07:31:17;;;;;;;37.97;22.02;;;15.00;99.90;;;;;;4168413;28;20180;-89
2023/06/01 07:33:22;;;;;;;42.05;23.95;;;15.20;99.90;;;;;;4175532;28;20176;-90
2023/06/01 07:35:29;;;;;;;39.67;24.10;;;15.50;99.90;;;;;;4180707;28;20175;-90
2023/06/01 07:37:31;;;;;;;31.77;19.83;;;15.90;99.90;;;;;;4170773;28;20338;-90
2023/06/01 07:39:32;;;;;;;31.70;20.33;;;16.00;99.90;;;;;;4154441;28;20204;-90
2023/06/01 07:41:33;;;;;;;34.35;21.02;;;16.10;99.90;;;;;;4155083;28;20223;-89
2023/06/01 07:43:38;;;;;;;37.35;21.02;;;16.00;99.90;;;;;;4168776;28;20243;-89
2023/06/01 07:45:40;;;;;;;31.45;19.63;;;15.80;99.90;;;;;;4168808;28;20180;-91
2023/06/01 07:47:41;;;;;;;35.42;19.08;;;15.60;99.90;;;;;;4155160;28;20652;-89
2023/06/01 07:49:41;;;;;;;32.45;19.80;;;15.50;99.90;;;;;;4154310;28;20173;-89
2023/06/01 07:51:43;;;;;;;32.30;19.83;;;15.60;99.90;;;;;;4167023;28;20246;-89
2023/06/01 07:53:44;;;;;;;34.22;19.67;;;15.90;99.90;;;;;;4169505;28;20633;-90
2023/06/01 07:55:50;;;;;;;31.88;20.20;;;16.00;99.90;;;;;;4169824;28;20235;-89
2023/06/01 07:57:52;;;;;;;32.47;18.80;;;15.90;99.90;;;;;;4173942;28;20247;-89
2023/06/01 07:59:53;;;;;;;34.03;19.60;;;16.00;99.90;;;;;;4154525;28;20219;-90
2023/06/01 08:01:58;;;;;;;32.42;20.27;;;15.90;99.90;;;;;;4169587;28;20174;-89
2023/06/01 08:04:01;;;;;;;36.55;19.98;;;16.00;99.90;;;;;;4155215;28;20168;-89
2023/06/01 08:06:04;;;;;;;32.38;19.98;;;16.10;99.90;;;;;;4171787;28;20198;-89
2023/06/01 08:08:08;;;;;;;37.10;19.90;;;16.00;99.90;;;;;;4172062;28;20177;-90
2023/06/01 08:10:11;;;;;;;34.40;19.15;;;16.00;99.90;;;;;;4169863;28;20156;-90
2023/06/01 08:12:11;;;;;;;36.72;19.23;;;16.20;99.90;;;;;;4156786;28;20224;-90
2023/06/01 08:14:12;;;;;;;34.60;20.20;;;16.50;99.90;;;;;;4171730;28;20748;-89
2023/06/01 08:16:14;;;;;;;31.02;19.65;;;16.70;99.90;;;;;;4170504;28;20834;-89
2023/06/01 08:18:19;;;;;;;29.98;19.08;;;17.40;99.90;;;;;;4156156;28;20235;-89
2023/06/01 08:20:23;;;;;;;31.55;18.75;;;18.10;99.90;;;;;;4173661;28;20311;-90
2023/06/01 08:22:24;;;;;;;29.65;18.33;;;18.70;99.90;;;;;;4172215;28;20168;-90
2023/06/01 08:24:25;;;;;;;29.70;20.30;;;19.10;99.90;;;;;;4153008;28;20180;-89
2023/06/01 08:26:25;;;;;;;28.98;18.33;;;19.80;99.90;;;;;;4154117;28;20236;-89
2023/06/01 08:28:26;;;;;;;28.48;18.23;;;20.40;99.90;;;;;;4169576;28;20675;-89
2023/06/01 08:30:30;;;;;;;38.83;20.83;;;20.20;99.90;;;;;;4157292;28;20277;-89
2023/06/01 08:32:31;;;;;;;36.42;20.58;;;19.90;99.90;;;;;;4154602;28;20275;-91
2023/06/01 08:34:32;;;;;;;39.35;21.67;;;18.90;99.90;;;;;;4154645;28;20173;-88
2023/06/01 08:36:36;;;;;;;40.55;19.90;;;19.10;99.90;;;;;;4171302;28;20192;-89
2023/06/01 08:38:37;;;;;;;51.50;20.58;;;19.40;99.90;;;;;;4172903;28;20247;-89
2023/06/01 08:40:40;;;;;;;55.30;19.05;;;19.60;99.90;;;;;;4156594;28;20556;-89
2023/06/01 08:42:57;;;;;;;27.70;17.88;;;19.70;99.90;;;;;;4155014;28;20172;-90
2023/06/01 08:44:59;;;;;;;33.50;19.60;;;20.30;99.90;;;;;;4156253;28;20248;-88
2023/06/01 08:47:01;;;;;;;23.17;14.98;;;20.70;99.90;;;;;;4154998;28;20229;-89
2023/06/01 08:49:04;;;;;;;24.35;16.20;;;20.80;99.90;;;;;;4173200;28;20229;-90
2023/06/01 08:51:07;;;;;;;22.33;15.95;;;20.60;99.90;;;;;;4154801;28;20169;-89
2023/06/01 08:53:28;;;;;;;29.05;14.60;;;20.50;99.90;;;;;;4173641;28;20271;-89
2023/06/01 08:55:34;;;;;;;31.35;19.17;;;20.80;99.90;;;;;;4174292;28;20203;-88
2023/06/01 08:57:35;;;;;;;33.40;18.90;;;20.70;99.90;;;;;;4171391;28;20184;-88
2023/06/01 08:59:37;;;;;;;38.78;18.35;;;20.40;99.90;;;;;;4152117;28;20205;-89
2023/06/01 09:01:45;;;;;;;37.50;19.83;;;20.40;99.90;;;;;;4171275;28;20180;-88
2023/06/01 09:03:45;;;;;;;29.50;18.65;;;20.30;99.90;;;;;;4171010;28;20183;-90
2023/06/01 09:05:46;;;;;;;32.38;19.23;;;20.20;99.90;;;;;;4169587;28;20196;-88
2023/06/01 09:07:49;;;;;;;26.13;18.02;;;20.40;99.90;;;;;;4156133;28;20177;-89
2023/06/01 09:09:50;;;;;;;26.08;18.33;;;20.70;99.90;;;;;;4154193;28;20177;-89
2023/06/01 09:12:23;;;;;;;26.27;19.45;;;21.30;99.90;;;;;;4170582;28;20172;-88
2023/06/01 09:14:24;;;;;;;32.05;20.52;;;21.60;99.90;;;;;;4156371;28;20187;-89
2023/06/01 09:16:43;;;;;;;29.55;22.63;;;21.30;99.90;;;;;;4169879;28;20306;-88
2023/06/01 09:18:58;;;;;;;51.97;23.35;;;21.10;99.90;;;;;;4153976;28;20175;-89
2023/06/01 09:21:13;;;;;;;50.17;20.63;;;21.20;99.90;;;;;;4152834;28;20251;-89
2023/06/01 09:23:27;;;;;;;28.20;15.63;;;21.50;99.90;;;;;;4170835;28;20226;-89
2023/06/01 09:25:30;;;;;;;36.35;21.33;;;21.10;99.90;;;;;;4170087;28;20208;-89
2023/06/01 09:27:45;;;;;;;32.78;20.50;;;20.90;99.90;;;;;;4170524;28;20199;-88
2023/06/01 09:30:01;;;;;;;28.63;17.60;;;21.20;99.90;;;;;;4169244;28;20176;-89
2023/06/01 09:32:02;;;;;;;26.77;16.98;;;21.30;99.90;;;;;;4168855;28;20382;-89
2023/06/01 09:34:03;;;;;;;27.65;16.58;;;21.50;99.90;;;;;;4169441;28;20175;-89
2023/06/01 09:36:05;;;;;;;28.55;15.55;;;21.30;99.90;;;;;;4168897;28;20204;-88
2023/06/01 09:38:10;;;;;;;30.08;15.18;;;21.20;99.90;;;;;;4151934;28;20283;-88
2023/06/01 09:40:18;;;;;;;25.33;14.68;;;21.40;99.90;;;;;;4168602;28;20255;-90
2023/06/01 09:42:37;;;;;;;26.45;14.45;;;21.30;99.90;;;;;;4169223;28;20625;-89
2023/06/01 09:44:55;;;;;;;23.27;13.15;;;22.10;99.90;;;;;;4170556;28;20190;-90
2023/06/01 09:46:57;;;;;;;23.40;14.10;;;22.80;99.90;;;;;;4169391;28;20271;-89
2023/06/01 09:49:07;;;;;;;22.67;13.05;;;22.50;99.90;;;;;;4170649;28;20195;-88
2023/06/01 09:51:31;;;;;;;24.05;13.98;;;21.90;99.90;;;;;;4166205;28;20174;-89
2023/06/01 09:53:42;;;;;;;20.15;13.40;;;21.40;99.90;;;;;;4169007;28;20177;-88
2023/06/01 09:55:58;;;;;;;20.85;12.85;;;21.30;99.90;;;;;;4167808;28;20545;-89
2023/06/01 09:58:21;;;;;;;26.42;13.20;;;21.60;99.90;;;;;;4166717;28;20592;-89
2023/06/01 10:00:24;;;;;;;20.45;12.75;;;22.10;99.90;;;;;;4182544;28;20273;-90
2023/06/01 10:02:32;;;;;;;22.88;13.57;;;22.20;99.90;;;;;;4174760;28;20616;-90
2023/06/01 10:04:37;;;;;;;20.70;12.73;;;22.10;99.90;;;;;;4169050;28;20169;-88
2023/06/01 10:06:41;;;;;;;23.75;12.02;;;21.80;99.90;;;;;;4150206;28;20267;-90
2023/06/01 10:08:45;;;;;;;19.27;12.27;;;21.20;99.90;;;;;;4152333;28;20231;-89
2023/06/01 10:10:58;;;;;;;19.67;12.07;;;21.60;99.90;;;;;;4169313;28;20180;-90
2023/06/01 10:13:00;;;;;;;27.38;12.82;;;21.80;99.90;;;;;;4172143;28;20661;-89
2023/06/01 10:15:03;;;;;;;22.83;12.85;;;21.80;99.90;;;;;;4169432;28;20164;-89
2023/06/01 10:17:04;;;;;;;24.83;12.82;;;22.00;99.90;;;;;;4151274;28;20318;-89
2023/06/01 10:19:05;;;;;;;26.65;13.73;;;22.30;99.90;;;;;;4151429;28;20221;-89
2023/06/01 10:21:09;;;;;;;22.60;13.50;;;22.50;99.90;;;;;;4150622;28;20172;-90
2023/06/01 10:23:10;;;;;;;23.45;14.23;;;22.60;99.90;;;;;;4154572;28;20177;-89
2023/06/01 10:25:14;;;;;;;23.23;14.00;;;22.50;99.90;;;;;;4169350;28;20175;-89
2023/06/01 10:27:23;;;;;;;21.23;13.20;;;21.80;99.90;;;;;;4152134;28;20180;-89
2023/06/01 10:29:25;;;;;;;23.17;13.60;;;21.40;99.90;;;;;;4152851;28;20168;-88
2023/06/01 10:31:32;;;;;;;19.92;13.05;;;20.70;99.90;;;;;;4152324;28;20210;-89
2023/06/01 10:33:58;;;;;;;29.10;13.32;;;20.40;99.90;;;;;;4150156;28;20723;-88
2023/06/01 10:35:59;;;;;;;25.17;14.25;;;20.30;99.90;;;;;;4152623;28;20211;-89